createdAt,value
2019-02-23T00:00:26.856Z,0
2019-02-23T00:01:28.102Z,0
2019-02-23T00:02:28.790Z,0
2019-02-23T00:03:29.201Z,0
2019-02-23T00:04:30.962Z,0
2019-02-23T00:05:31.373Z,0
2019-02-23T00:06:32.406Z,0
2019-02-23T00:07:33.121Z,0
2019-02-23T00:08:33.533Z,0
2019-02-23T00:09:34.221Z,0
2019-02-23T00:10:35.646Z,0
2019-02-23T00:11:36.357Z,0
2019-02-23T00:12:36.816Z,0
2019-02-23T00:13:38.067Z,0
2019-02-23T00:14:38.203Z,0
2019-02-23T00:15:38.626Z,0
2019-02-23T00:16:39.872Z,0
2019-02-23T00:17:40.282Z,0
2019-02-23T00:18:41.258Z,0
2019-02-23T00:19:40.947Z,0
2019-02-23T00:20:41.924Z,0
2019-02-23T00:21:42.335Z,0
2019-02-23T00:22:43.031Z,0
2019-02-23T00:23:43.164Z,0
2019-02-23T00:24:44.298Z,0
2019-02-23T00:25:45.716Z,0
2019-02-23T00:26:46.128Z,0
2019-02-23T00:27:46.815Z,0
2019-02-23T00:28:46.949Z,0
2019-02-23T00:29:49.198Z,0
2019-02-23T00:30:50.572Z,0
2019-02-23T00:31:49.983Z,0
2019-02-23T00:32:51.716Z,0
2019-02-23T00:33:52.122Z,0
2019-02-23T00:34:53.090Z,0
2019-02-23T00:35:54.336Z,0
2019-02-23T00:36:55.061Z,0
2019-02-23T00:37:55.193Z,0
2019-02-23T00:38:55.881Z,0
2019-02-23T00:39:56.017Z,0
2019-02-23T00:40:57.114Z,0
2019-02-23T00:41:57.803Z,0
2019-02-23T00:42:58.492Z,0
2019-02-23T00:43:59.179Z,0
2019-02-23T00:45:00.212Z,0
2019-02-23T00:45:59.733Z,0
2019-02-23T00:47:01.147Z,0
2019-02-23T00:48:01.633Z,0
2019-02-23T00:49:02.059Z,0
2019-02-23T00:50:03.035Z,0
2019-02-23T00:51:03.583Z,0
2019-02-23T00:52:04.557Z,0
2019-02-23T00:53:05.798Z,0
2019-02-23T00:54:06.217Z,0
2019-02-23T00:55:07.470Z,0
2019-02-23T00:56:07.935Z,0
2019-02-23T00:57:08.902Z,0
2019-02-23T00:58:09.589Z,0
2019-02-23T00:59:09.723Z,0
2019-02-23T01:00:11.136Z,0
2019-02-23T01:01:11.987Z,0
2019-02-23T01:02:14.490Z,0
2019-02-23T01:03:14.981Z,0
2019-02-23T01:04:15.389Z,0
2019-02-23T01:05:16.159Z,0
2019-02-23T01:06:16.569Z,0
2019-02-23T01:07:16.984Z,0
2019-02-23T01:08:17.682Z,0
2019-02-23T01:09:17.820Z,0
2019-02-23T01:10:22.351Z,0
2019-02-23T01:11:22.769Z,0
2019-02-23T01:12:23.183Z,0
2019-02-23T01:13:24.157Z,0
2019-02-23T01:14:24.288Z,0
2019-02-23T01:15:25.696Z,0
2019-02-23T01:16:26.400Z,0
2019-02-23T01:17:27.086Z,0
2019-02-23T01:18:28.053Z,0
2019-02-23T01:19:27.752Z,0
2019-02-23T01:20:28.160Z,0
2019-02-23T01:21:28.981Z,0
2019-02-23T01:22:29.393Z,0
2019-02-23T01:23:30.091Z,0
2019-02-23T01:24:31.334Z,0
2019-02-23T01:25:31.021Z,0
2019-02-23T01:26:32.227Z,0
2019-02-23T01:27:33.201Z,0
2019-02-23T01:28:33.165Z,0
2019-02-23T01:29:33.300Z,0
2019-02-23T01:30:35.266Z,0
2019-02-23T01:31:35.365Z,0
2019-02-23T01:32:35.610Z,0
2019-02-23T01:33:35.827Z,0
2019-02-23T01:34:37.513Z,0
2019-02-23T01:35:37.643Z,0
2019-02-23T01:36:39.344Z,0
2019-02-23T01:37:39.759Z,0
2019-02-23T01:38:40.455Z,0
2019-02-23T01:39:41.157Z,0
2019-02-23T01:40:41.927Z,0
2019-02-23T01:41:42.056Z,0
2019-02-23T01:42:43.021Z,0
2019-02-23T01:43:43.450Z,0
2019-02-23T01:44:43.862Z,0
2019-02-23T01:45:45.163Z,0
2019-02-23T01:46:45.576Z,0
2019-02-23T01:47:46.985Z,0
2019-02-23T01:48:47.395Z,0
2019-02-23T01:50:01.134Z,0
2019-02-23T01:51:01.237Z,0
2019-02-23T01:52:02.487Z,0
2019-02-23T01:53:02.176Z,0
2019-02-23T01:54:03.157Z,0
2019-02-23T01:55:04.123Z,0
2019-02-23T01:56:04.537Z,0
2019-02-23T01:57:05.598Z,0
2019-02-23T01:58:06.573Z,0
2019-02-23T01:59:06.985Z,0
2019-02-23T02:00:08.944Z,0
2019-02-23T02:01:09.488Z,0
2019-02-23T02:02:09.906Z,0
2019-02-23T02:03:10.349Z,0
2019-02-23T02:04:11.331Z,0
2019-02-23T02:05:12.575Z,0
2019-02-23T02:06:13.539Z,0
2019-02-23T02:07:13.674Z,0
2019-02-23T02:08:15.087Z,0
2019-02-23T02:09:15.776Z,0
2019-02-23T02:10:17.058Z,0
2019-02-23T02:11:16.884Z,0
2019-02-23T02:12:18.312Z,0
2019-02-23T02:13:19.827Z,0
2019-02-23T02:14:19.959Z,0
2019-02-23T02:15:21.090Z,0
2019-02-23T02:16:22.774Z,0
2019-02-23T02:17:24.015Z,0
2019-02-23T02:18:24.147Z,0
2019-02-23T02:19:26.138Z,0
2019-02-23T02:20:26.980Z,0
2019-02-23T02:21:27.527Z,0
2019-02-23T02:22:28.933Z,0
2019-02-23T02:23:29.631Z,0
2019-02-23T02:24:30.640Z,0
2019-02-23T02:25:31.327Z,0
2019-02-23T02:26:31.737Z,0
2019-02-23T02:27:32.149Z,0
2019-02-23T02:28:33.838Z,0
2019-02-23T02:29:34.260Z,0
2019-02-23T02:30:35.506Z,0
2019-02-23T02:31:36.047Z,0
2019-02-23T02:32:36.581Z,0
2019-02-23T02:33:37.547Z,0
2019-02-23T02:34:38.537Z,0
2019-02-23T02:35:38.220Z,0
2019-02-23T02:36:39.214Z,0
2019-02-23T02:37:40.459Z,0
2019-02-23T02:38:39.873Z,0
2019-02-23T02:39:40.561Z,0
2019-02-23T02:40:41.864Z,0
2019-02-23T02:41:42.834Z,0
2019-02-23T02:42:43.523Z,0
2019-02-23T02:43:44.225Z,0
2019-02-23T02:44:45.472Z,0
2019-02-23T02:45:46.725Z,0
2019-02-23T02:46:47.258Z,0
2019-02-23T02:47:47.834Z,0
2019-02-23T02:48:48.117Z,0
2019-02-23T02:49:49.084Z,0
2019-02-23T02:50:49.773Z,0
2019-02-23T02:51:51.201Z,0
2019-02-23T02:52:51.616Z,0
2019-02-23T02:53:52.316Z,0
2019-02-23T02:54:52.996Z,0
2019-02-23T02:55:54.967Z,0
2019-02-23T02:56:54.928Z,0
2019-02-23T02:57:55.900Z,0
2019-02-23T02:58:57.153Z,0
2019-02-23T02:59:56.300Z,0
2019-02-23T03:00:57.433Z,0
2019-02-23T03:02:01.025Z,0
2019-02-23T03:03:02.577Z,0
2019-02-23T03:04:02.298Z,0
2019-02-23T03:05:02.989Z,0
2019-02-23T03:06:03.689Z,0
2019-02-23T03:07:05.223Z,0
2019-02-23T03:08:06.186Z,0
2019-02-23T03:09:06.880Z,0
2019-02-23T03:10:07.924Z,0
2019-02-23T03:11:08.619Z,0
2019-02-23T03:12:09.563Z,0
2019-02-23T03:13:10.556Z,0
2019-02-23T03:14:11.523Z,0
2019-02-23T03:15:11.700Z,0
2019-02-23T03:16:12.393Z,0
2019-02-23T03:17:12.398Z,0
2019-02-23T03:18:13.639Z,0
2019-02-23T03:19:14.669Z,0
2019-02-23T03:20:15.387Z,0
2019-02-23T03:21:16.362Z,0
2019-02-23T03:22:16.898Z,0
2019-02-23T03:23:18.156Z,0
2019-02-23T03:24:17.842Z,0
2019-02-23T03:25:18.693Z,0
2019-02-23T03:26:19.436Z,0
2019-02-23T03:27:20.448Z,0
2019-02-23T03:28:20.142Z,0
2019-02-23T03:29:21.407Z,0
2019-02-23T03:30:22.449Z,0
2019-02-23T03:31:23.875Z,0
2019-02-23T03:32:25.011Z,0
2019-02-23T03:33:26.149Z,0
2019-02-23T03:34:26.115Z,0
2019-02-23T03:35:27.082Z,0
2019-02-23T03:36:28.042Z,0
2019-02-23T03:37:28.551Z,0
2019-02-23T03:38:28.683Z,0
2019-02-23T03:39:30.927Z,0
2019-02-23T03:40:31.501Z,0
2019-02-23T03:41:32.189Z,0
2019-02-23T03:42:33.936Z,0
2019-02-23T03:43:33.623Z,0
2019-02-23T03:44:34.864Z,0
2019-02-23T03:45:35.557Z,0
2019-02-23T03:46:36.254Z,0
2019-02-23T03:47:36.937Z,0
2019-02-23T03:48:38.735Z,0
2019-02-23T03:49:38.467Z,0
2019-02-23T03:50:51.949Z,0
2019-02-23T03:51:53.434Z,0
2019-02-23T03:52:53.854Z,0
2019-02-23T03:53:54.822Z,0
2019-02-23T03:54:55.519Z,0
2019-02-23T03:55:56.480Z,0
2019-02-23T03:56:57.531Z,0
2019-02-23T03:57:58.777Z,0
2019-02-23T03:59:00.023Z,0
2019-02-23T04:00:00.834Z,0
2019-02-23T04:01:02.372Z,0
2019-02-23T04:02:02.784Z,0
2019-02-23T04:03:03.319Z,0
2019-02-23T04:04:03.478Z,0
2019-02-23T04:05:04.740Z,0
2019-02-23T04:06:05.432Z,0
2019-02-23T04:07:06.128Z,0
2019-02-23T04:08:06.833Z,0
2019-02-23T04:09:07.249Z,0
2019-02-23T04:10:08.235Z,0
2019-02-23T04:11:09.202Z,0
2019-02-23T04:12:09.754Z,0
2019-02-23T04:13:10.750Z,0
2019-02-23T04:14:11.448Z,0
2019-02-23T04:15:12.178Z,0
2019-02-23T04:16:13.144Z,0
2019-02-23T04:17:13.187Z,0
2019-02-23T04:18:14.719Z,0
2019-02-23T04:19:14.409Z,0
2019-02-23T04:20:15.821Z,0
2019-02-23T04:21:16.793Z,0
2019-02-23T04:22:17.199Z,0
2019-02-23T04:23:18.999Z,0
2019-02-23T04:24:18.963Z,0
2019-02-23T04:25:20.210Z,0
2019-02-23T04:26:20.896Z,0
2019-02-23T04:27:21.588Z,0
2019-02-23T04:28:21.717Z,0
2019-02-23T04:29:23.704Z,0
2019-02-23T04:30:24.117Z,0
2019-02-23T04:31:24.817Z,0
2019-02-23T04:32:26.983Z,0
2019-02-23T04:33:27.222Z,0
2019-02-23T04:34:27.627Z,0
2019-02-23T04:35:28.058Z,0
2019-02-23T04:36:28.473Z,0
2019-02-23T04:37:29.722Z,0
2019-02-23T04:38:30.401Z,0
2019-02-23T04:39:30.805Z,0
2019-02-23T04:40:31.765Z,0
2019-02-23T04:41:32.465Z,0
2019-02-23T04:42:34.128Z,0
2019-02-23T04:43:34.553Z,0
2019-02-23T04:44:35.526Z,0
2019-02-23T04:45:36.508Z,0
2019-02-23T04:46:37.475Z,0
2019-02-23T04:47:38.820Z,0
2019-02-23T04:48:38.567Z,0
2019-02-23T04:49:39.530Z,0
2019-02-23T04:50:40.772Z,0
2019-02-23T04:51:42.055Z,0
2019-02-23T04:52:42.769Z,0
2019-02-23T04:53:41.895Z,0
2019-02-23T04:54:43.041Z,0
2019-02-23T04:55:44.003Z,0
2019-02-23T04:56:45.245Z,0
2019-02-23T04:57:44.653Z,0
2019-02-23T04:58:46.622Z,0
2019-02-23T04:59:47.033Z,0
2019-02-23T05:00:47.725Z,0
2019-02-23T05:01:48.204Z,0
2019-02-23T05:02:48.894Z,0
2019-02-23T05:03:49.302Z,0
2019-02-23T05:04:49.714Z,0
2019-02-23T05:05:50.676Z,0
2019-02-23T05:06:51.941Z,0
2019-02-23T05:07:51.636Z,0
2019-02-23T05:08:52.320Z,0
2019-02-23T05:09:53.280Z,0
2019-02-23T05:10:54.238Z,0
2019-02-23T05:11:55.249Z,0
2019-02-23T05:12:55.381Z,0
2019-02-23T05:13:56.621Z,0
2019-02-23T05:14:58.145Z,0
2019-02-23T05:15:58.143Z,0
2019-02-23T05:16:58.839Z,0
2019-02-23T05:17:59.812Z,0
2019-02-23T05:19:00.777Z,0
2019-02-23T05:20:01.335Z,0
2019-02-23T05:21:01.021Z,0
2019-02-23T05:22:02.915Z,0
2019-02-23T05:23:03.411Z,0
2019-02-23T05:24:04.949Z,0
2019-02-23T05:25:05.363Z,0
2019-02-23T05:26:06.330Z,0
2019-02-23T05:27:07.020Z,0
2019-02-23T05:28:07.990Z,0
2019-02-23T05:29:09.803Z,0
2019-02-23T05:30:09.794Z,0
2019-02-23T05:31:10.762Z,0
2019-02-23T05:32:11.194Z,0
2019-02-23T05:33:12.359Z,0
2019-02-23T05:34:12.765Z,0
2019-02-23T05:35:13.525Z,0
2019-02-23T05:36:13.657Z,0
2019-02-23T05:37:14.619Z,0
2019-02-23T05:38:15.896Z,0
2019-02-23T05:39:19.206Z,0
2019-02-23T05:40:16.914Z,0
2019-02-23T05:41:17.601Z,0
2019-02-23T05:42:19.148Z,0
2019-02-23T05:43:03.940Z,0
2019-02-23T05:44:04.361Z,0
2019-02-23T05:45:05.090Z,0
2019-02-23T05:46:06.055Z,0
2019-02-23T05:47:06.026Z,0
2019-02-23T05:48:07.992Z,0
2019-02-23T05:49:07.687Z,0
2019-02-23T05:50:08.204Z,0
2019-02-23T05:51:09.719Z,0
2019-02-23T05:52:09.178Z,0
2019-02-23T05:53:09.598Z,0
2019-02-23T05:54:11.808Z,0
2019-02-23T05:55:12.123Z,0
2019-02-23T05:56:24.847Z,0
2019-02-23T05:57:25.406Z,0
2019-02-23T05:58:25.826Z,0
2019-02-23T05:59:27.351Z,0
2019-02-23T06:00:27.316Z,0
2019-02-23T06:01:27.609Z,0
2019-02-23T06:02:27.582Z,0
2019-02-23T06:03:28.823Z,0
2019-02-23T06:04:29.381Z,0
2019-02-23T06:05:29.858Z,0
2019-02-23T06:06:29.995Z,0
2019-02-23T06:07:31.653Z,0
2019-02-23T06:08:31.630Z,0
2019-02-23T06:09:32.882Z,0
2019-02-23T06:10:33.287Z,5.63
2019-02-23T06:11:33.694Z,5.63
2019-02-23T06:12:34.659Z,5.63
2019-02-23T06:13:35.345Z,5.63
2019-02-23T06:14:35.749Z,5.63
2019-02-23T06:15:36.155Z,5.63
2019-02-23T06:16:36.840Z,5.63
2019-02-23T06:17:36.972Z,5.63
2019-02-23T06:18:37.948Z,5.63
2019-02-23T06:19:39.489Z,5.63
2019-02-23T06:20:40.453Z,5.63
2019-02-23T06:21:56.823Z,5.63
2019-02-23T06:22:53.788Z,5.63
2019-02-23T06:23:53.759Z,11.25
2019-02-23T06:24:54.445Z,5.63
2019-02-23T06:25:54.872Z,11.25
2019-02-23T06:26:57.017Z,11.25
2019-02-23T06:27:57.557Z,11.25
2019-02-23T06:28:57.966Z,11.25
2019-02-23T06:29:58.097Z,11.25
2019-02-23T06:30:59.139Z,11.25
2019-02-23T06:32:00.421Z,16.88
2019-02-23T06:33:00.824Z,16.88
2019-02-23T06:34:01.237Z,16.88
2019-02-23T06:35:02.396Z,16.88
2019-02-23T06:36:03.360Z,16.88
2019-02-23T06:37:04.327Z,16.88
2019-02-23T06:38:04.740Z,22.5
2019-02-23T06:39:05.783Z,22.5
2019-02-23T06:40:06.755Z,22.5
2019-02-23T06:41:07.441Z,22.5
2019-02-23T06:42:08.404Z,22.5
2019-02-23T06:43:09.198Z,22.5
2019-02-23T06:44:10.435Z,22.5
2019-02-23T06:45:11.127Z,22.5
2019-02-23T06:46:11.811Z,22.5
2019-02-23T06:47:12.496Z,22.5
2019-02-23T06:48:13.741Z,22.5
2019-02-23T06:49:13.776Z,28.13
2019-02-23T06:50:16.299Z,28.13
2019-02-23T06:51:15.986Z,28.13
2019-02-23T06:52:16.415Z,28.13
2019-02-23T06:53:18.100Z,28.13
2019-02-23T06:54:18.516Z,28.13
2019-02-23T06:55:19.001Z,28.13
2019-02-23T06:56:19.690Z,28.13
2019-02-23T06:57:21.101Z,28.13
2019-02-23T06:58:22.348Z,33.75
2019-02-23T06:59:23.600Z,33.75
2019-02-23T07:00:23.563Z,33.75
2019-02-23T07:01:24.529Z,28.13
2019-02-23T07:02:25.234Z,28.13
2019-02-23T07:03:26.893Z,28.13
2019-02-23T07:04:26.584Z,33.75
2019-02-23T07:05:28.007Z,33.75
2019-02-23T07:06:28.983Z,33.75
2019-02-23T07:07:28.423Z,33.75
2019-02-23T07:08:29.392Z,28.13
2019-02-23T07:09:30.945Z,33.75
2019-02-23T07:10:30.632Z,33.75
2019-02-23T07:11:32.597Z,33.75
2019-02-23T07:12:32.005Z,33.75
2019-02-23T07:13:33.138Z,33.75
2019-02-23T07:14:33.551Z,28.13
2019-02-23T07:15:34.314Z,39.38
2019-02-23T07:16:35.276Z,39.38
2019-02-23T07:17:34.971Z,39.38
2019-02-23T07:18:35.383Z,45
2019-02-23T07:19:35.793Z,45
2019-02-23T07:20:49.798Z,45
2019-02-23T07:21:50.614Z,45
2019-02-23T07:22:50.747Z,45
2019-02-23T07:23:52.153Z,45
2019-02-23T07:24:52.561Z,45
2019-02-23T07:25:53.339Z,45
2019-02-23T07:26:53.746Z,45
2019-02-23T07:27:55.157Z,50.63
2019-02-23T07:28:55.562Z,50.63
2019-02-23T07:29:56.804Z,56.25
2019-02-23T07:30:58.345Z,56.25
2019-02-23T07:31:58.464Z,56.25
2019-02-23T07:32:58.868Z,61.88
2019-02-23T07:33:59.858Z,61.88
2019-02-23T07:35:00.106Z,61.88
2019-02-23T07:36:00.827Z,67.5
2019-02-23T07:37:01.516Z,73.13
2019-02-23T07:38:02.813Z,73.13
2019-02-23T07:39:02.955Z,73.13
2019-02-23T07:40:04.656Z,73.13
2019-02-23T07:41:04.901Z,73.13
2019-02-23T07:42:05.024Z,84.38
2019-02-23T07:43:06.993Z,90
2019-02-23T07:44:07.404Z,84.38
2019-02-23T07:45:08.812Z,90
2019-02-23T07:46:08.945Z,101.25
2019-02-23T07:47:09.355Z,106.88
2019-02-23T07:48:11.042Z,106.88
2019-02-23T07:49:11.742Z,106.88
2019-02-23T07:50:13.278Z,106.88
2019-02-23T07:51:12.758Z,106.88
2019-02-23T07:52:14.148Z,95.63
2019-02-23T07:53:14.387Z,101.25
2019-02-23T07:54:15.083Z,112.5
2019-02-23T07:55:16.339Z,118.13
2019-02-23T07:56:17.310Z,118.13
2019-02-23T07:57:18.555Z,135
2019-02-23T07:58:19.245Z,146.25
2019-02-23T07:59:19.662Z,140.63
2019-02-23T08:00:20.911Z,140.63
2019-02-23T08:01:20.598Z,157.5
2019-02-23T08:02:21.720Z,168.75
2019-02-23T08:03:23.745Z,185.63
2019-02-23T08:04:24.441Z,196.88
2019-02-23T08:05:25.694Z,185.63
2019-02-23T08:06:26.107Z,180
2019-02-23T08:07:26.519Z,202.5
2019-02-23T08:08:27.209Z,236.25
2019-02-23T08:09:27.693Z,253.13
2019-02-23T08:10:28.944Z,286.88
2019-02-23T08:11:30.191Z,298.13
2019-02-23T08:12:29.807Z,337.5
2019-02-23T08:13:29.943Z,500.63
2019-02-23T08:14:31.908Z,641.25
2019-02-23T08:15:31.604Z,630
2019-02-23T08:16:32.588Z,551.25
2019-02-23T08:17:32.783Z,466.88
2019-02-23T08:18:32.913Z,466.88
2019-02-23T08:19:33.606Z,416.25
2019-02-23T08:20:34.020Z,410.63
2019-02-23T08:21:35.545Z,388.13
2019-02-23T08:22:39.622Z,365.63
2019-02-23T08:23:41.051Z,326.25
2019-02-23T08:24:41.507Z,286.88
2019-02-23T08:25:41.919Z,281.25
2019-02-23T08:26:42.609Z,281.25
2019-02-23T08:27:43.371Z,270
2019-02-23T08:28:44.115Z,258.75
2019-02-23T08:29:44.541Z,253.13
2019-02-23T08:30:45.950Z,253.13
2019-02-23T08:31:46.641Z,253.13
2019-02-23T08:32:47.326Z,258.75
2019-02-23T08:33:47.851Z,270
2019-02-23T08:34:48.540Z,281.25
2019-02-23T08:35:49.450Z,286.88
2019-02-23T08:36:50.142Z,286.88
2019-02-23T08:37:51.109Z,264.38
2019-02-23T08:38:51.246Z,230.63
2019-02-23T08:39:52.657Z,219.38
2019-02-23T08:40:53.345Z,230.63
2019-02-23T08:41:54.317Z,230.63
2019-02-23T08:42:55.426Z,213.75
2019-02-23T08:43:56.423Z,196.88
2019-02-23T08:44:56.558Z,185.63
2019-02-23T08:45:57.691Z,180
2019-02-23T08:46:58.667Z,180
2019-02-23T08:47:59.077Z,185.63
2019-02-23T08:49:00.489Z,196.88
2019-02-23T08:50:01.788Z,208.13
2019-02-23T08:51:02.205Z,219.38
2019-02-23T08:52:02.893Z,225
2019-02-23T08:53:03.847Z,247.5
2019-02-23T08:54:04.020Z,241.88
2019-02-23T08:55:05.707Z,236.25
2019-02-23T08:56:06.124Z,230.63
2019-02-23T08:57:06.895Z,225
2019-02-23T08:58:07.588Z,225
2019-02-23T08:59:08.279Z,225
2019-02-23T09:00:08.975Z,236.25
2019-02-23T09:01:09.435Z,236.25
2019-02-23T09:02:10.425Z,236.25
2019-02-23T09:03:10.588Z,241.88
2019-02-23T09:04:11.557Z,264.38
2019-02-23T09:05:12.521Z,281.25
2019-02-23T09:06:12.937Z,298.13
2019-02-23T09:07:13.348Z,292.5
2019-02-23T09:08:14.320Z,298.13
2019-02-23T09:09:15.005Z,292.5
2019-02-23T09:10:16.259Z,286.88
2019-02-23T09:11:16.394Z,286.88
2019-02-23T09:12:17.808Z,286.88
2019-02-23T09:13:18.795Z,286.88
2019-02-23T09:14:18.779Z,298.13
2019-02-23T09:15:22.099Z,303.75
2019-02-23T09:16:19.929Z,286.88
2019-02-23T09:17:20.900Z,270
2019-02-23T09:18:21.595Z,270
2019-02-23T09:19:22.559Z,270
2019-02-23T09:20:35.347Z,253.13
2019-02-23T09:21:35.205Z,241.88
2019-02-23T09:22:36.449Z,241.88
2019-02-23T09:23:37.140Z,230.63
2019-02-23T09:24:37.549Z,208.13
2019-02-23T09:25:39.515Z,202.5
2019-02-23T09:26:39.934Z,191.25
2019-02-23T09:27:40.632Z,191.25
2019-02-23T09:28:41.108Z,191.25
2019-02-23T09:29:42.073Z,202.5
2019-02-23T09:30:42.050Z,202.5
2019-02-23T09:31:42.596Z,196.88
2019-02-23T09:32:43.560Z,208.13
2019-02-23T09:33:43.988Z,213.75
2019-02-23T09:34:44.686Z,225
2019-02-23T09:35:45.717Z,230.63
2019-02-23T09:36:48.373Z,236.25
2019-02-23T09:37:49.355Z,270
2019-02-23T09:38:49.498Z,298.13
2019-02-23T09:39:50.188Z,315
2019-02-23T09:40:51.160Z,343.13
2019-02-23T09:41:51.624Z,376.88
2019-02-23T09:42:53.149Z,371.25
2019-02-23T09:43:53.113Z,331.88
2019-02-23T09:44:53.522Z,309.38
2019-02-23T09:45:54.210Z,309.38
2019-02-23T09:46:54.626Z,331.88
2019-02-23T09:47:56.060Z,337.5
2019-02-23T09:48:58.475Z,331.88
2019-02-23T09:49:59.443Z,309.38
2019-02-23T09:51:00.131Z,281.25
2019-02-23T09:52:00.973Z,303.75
2019-02-23T09:53:13.720Z,292.5
2019-02-23T09:54:14.265Z,236.25
2019-02-23T09:55:15.793Z,241.88
2019-02-23T09:56:15.485Z,253.13
2019-02-23T09:57:15.897Z,241.88
2019-02-23T09:58:17.865Z,230.63
2019-02-23T09:59:18.276Z,230.63
2019-02-23T10:00:18.972Z,225
2019-02-23T10:01:20.745Z,213.75
2019-02-23T10:02:21.726Z,213.75
2019-02-23T10:03:22.421Z,219.38
2019-02-23T10:04:23.545Z,225
2019-02-23T10:05:24.512Z,225
2019-02-23T10:06:25.481Z,247.5
2019-02-23T10:07:26.172Z,253.13
2019-02-23T10:08:26.306Z,253.13
2019-02-23T10:09:28.294Z,275.63
2019-02-23T10:10:27.981Z,309.38
2019-02-23T10:11:28.949Z,320.63
2019-02-23T10:12:29.916Z,337.5
2019-02-23T10:13:30.611Z,343.13
2019-02-23T10:14:30.873Z,337.5
2019-02-23T10:15:31.363Z,303.75
2019-02-23T10:16:32.051Z,286.88
2019-02-23T10:17:33.018Z,275.63
2019-02-23T10:18:33.433Z,275.63
2019-02-23T10:19:34.844Z,230.63
2019-02-23T10:20:36.169Z,241.88
2019-02-23T10:21:36.647Z,286.88
2019-02-23T10:22:39.295Z,281.25
2019-02-23T10:23:38.202Z,275.63
2019-02-23T10:24:38.743Z,270
2019-02-23T10:25:39.790Z,286.88
2019-02-23T10:26:40.480Z,275.63
2019-02-23T10:27:40.931Z,331.88
2019-02-23T10:28:42.066Z,337.5
2019-02-23T10:29:43.477Z,326.25
2019-02-23T10:30:43.897Z,320.63
2019-02-23T10:31:45.305Z,348.75
2019-02-23T10:32:46.997Z,376.88
2019-02-23T10:33:49.744Z,410.63
2019-02-23T10:34:51.165Z,382.5
2019-02-23T10:35:51.868Z,399.38
2019-02-23T10:36:53.115Z,388.13
2019-02-23T10:37:53.807Z,405
2019-02-23T10:38:54.498Z,399.38
2019-02-23T10:39:54.910Z,382.5
2019-02-23T10:40:56.042Z,360
2019-02-23T10:41:57.652Z,343.13
2019-02-23T10:42:58.066Z,343.13
2019-02-23T10:43:58.576Z,365.63
2019-02-23T10:44:59.167Z,399.38
2019-02-23T10:46:00.298Z,495
2019-02-23T10:47:00.996Z,545.63
2019-02-23T10:48:01.419Z,478.13
2019-02-23T10:49:02.413Z,416.25
2019-02-23T10:50:03.358Z,393.75
2019-02-23T10:51:02.830Z,376.88
2019-02-23T10:52:03.521Z,382.5
2019-02-23T10:53:05.286Z,365.63
2019-02-23T10:54:05.977Z,360
2019-02-23T10:55:07.444Z,360
2019-02-23T10:56:07.415Z,315
2019-02-23T10:57:08.662Z,281.25
2019-02-23T10:58:08.351Z,281.25
2019-02-23T10:59:08.504Z,286.88
2019-02-23T11:00:10.198Z,264.38
2019-02-23T11:01:11.173Z,253.13
2019-02-23T11:02:11.588Z,270
2019-02-23T11:03:13.271Z,298.13
2019-02-23T11:04:13.747Z,326.25
2019-02-23T11:05:14.015Z,410.63
2019-02-23T11:06:15.713Z,495
2019-02-23T11:07:16.490Z,410.63
2019-02-23T11:08:17.177Z,416.25
2019-02-23T11:09:17.591Z,478.13
2019-02-23T11:10:18.279Z,624.38
2019-02-23T11:11:19.251Z,832.5
2019-02-23T11:12:19.944Z,579.38
2019-02-23T11:13:20.630Z,551.25
2019-02-23T11:14:21.595Z,641.25
2019-02-23T11:15:22.134Z,669.38
2019-02-23T11:16:22.547Z,658.13
2019-02-23T11:17:23.239Z,950.63
2019-02-23T11:18:23.385Z,675
2019-02-23T11:19:24.573Z,511.88
2019-02-23T11:20:25.538Z,618.75
2019-02-23T11:21:26.787Z,843.75
2019-02-23T11:22:27.769Z,1215
2019-02-23T11:23:29.016Z,1535.63
2019-02-23T11:24:28.431Z,697.5
2019-02-23T11:25:29.036Z,562.5
2019-02-23T11:26:29.727Z,551.25
2019-02-23T11:27:30.419Z,607.5
2019-02-23T11:28:30.829Z,658.13
2019-02-23T11:29:33.591Z,601.88
2019-02-23T11:30:32.728Z,523.13
2019-02-23T11:31:33.146Z,511.88
2019-02-23T11:32:34.282Z,517.5
2019-02-23T11:33:36.533Z,517.5
2019-02-23T11:34:36.260Z,523.13
2019-02-23T11:35:36.812Z,506.25
2019-02-23T11:36:37.505Z,472.5
2019-02-23T11:37:37.642Z,455.63
2019-02-23T11:38:39.056Z,478.13
2019-02-23T11:39:39.190Z,506.25
2019-02-23T11:40:40.373Z,562.5
2019-02-23T11:41:41.505Z,680.63
2019-02-23T11:42:42.926Z,708.75
2019-02-23T11:43:43.624Z,765
2019-02-23T11:44:44.037Z,877.5
2019-02-23T11:45:45.139Z,1068.75
2019-02-23T11:47:02.878Z,1158.75
2019-02-23T11:48:00.977Z,956.25
2019-02-23T11:49:01.387Z,950.63
2019-02-23T11:50:02.573Z,1389.38
2019-02-23T11:51:02.262Z,900
2019-02-23T11:52:02.675Z,871.88
2019-02-23T11:53:03.645Z,849.38
2019-02-23T11:54:04.068Z,888.75
2019-02-23T11:55:05.039Z,765
2019-02-23T11:56:04.453Z,725.63
2019-02-23T11:57:06.146Z,742.5
2019-02-23T11:58:07.243Z,731.25
2019-02-23T11:59:07.379Z,776.25
2019-02-23T12:00:08.518Z,787.5
2019-02-23T12:01:09.933Z,1119.38
2019-02-23T12:02:10.632Z,1530
2019-02-23T12:03:11.048Z,1051.88
2019-02-23T12:04:11.537Z,945
2019-02-23T12:05:12.326Z,1344.38
2019-02-23T12:06:12.808Z,2160
2019-02-23T12:07:13.224Z,2626.88
2019-02-23T12:08:14.043Z,2143.13
2019-02-23T12:09:15.061Z,2019.38
2019-02-23T12:10:16.589Z,1321.88
2019-02-23T12:11:16.020Z,1158.75
2019-02-23T12:12:16.732Z,2036.25
2019-02-23T12:13:16.896Z,1738.13
2019-02-23T12:14:18.422Z,1951.88
2019-02-23T12:15:18.704Z,1890
2019-02-23T12:16:18.847Z,2205
2019-02-23T12:17:20.540Z,1586.25
2019-02-23T12:18:20.659Z,1771.88
2019-02-23T12:19:21.632Z,1681.88
2019-02-23T12:20:22.894Z,2418.75
2019-02-23T12:21:22.590Z,1254.38
2019-02-23T12:22:23.008Z,1372.5
2019-02-23T12:23:23.992Z,1541.25
2019-02-23T12:24:24.690Z,1411.88
2019-02-23T12:25:24.833Z,1738.13
2019-02-23T12:26:26.253Z,1614.38
2019-02-23T12:27:26.670Z,1783.13
2019-02-23T12:28:27.434Z,2081.25
2019-02-23T12:29:27.853Z,1839.38
2019-02-23T12:30:28.570Z,1591.88
2019-02-23T12:31:29.262Z,1923.75
2019-02-23T12:32:29.962Z,1766.25
2019-02-23T12:33:30.380Z,1895.63
2019-02-23T12:34:31.419Z,2030.63
2019-02-23T12:35:31.839Z,1985.63
2019-02-23T12:36:33.254Z,916.88
2019-02-23T12:37:33.408Z,675
2019-02-23T12:38:33.958Z,646.88
2019-02-23T12:39:34.374Z,624.38
2019-02-23T12:40:35.800Z,1974.38
2019-02-23T12:41:36.496Z,1839.38
2019-02-23T12:42:36.920Z,1985.63
2019-02-23T12:43:38.164Z,2266.88
2019-02-23T12:44:38.587Z,2255.63
2019-02-23T12:45:39.930Z,2356.88
2019-02-23T12:46:40.905Z,2407.5
2019-02-23T12:47:41.388Z,2452.5
2019-02-23T12:48:41.824Z,2497.5
2019-02-23T12:49:42.800Z,2508.75
2019-02-23T12:50:43.800Z,1985.63
2019-02-23T12:51:44.847Z,2250
2019-02-23T12:52:45.264Z,2081.25
2019-02-23T12:53:45.693Z,2086.88
2019-02-23T12:54:46.838Z,2385
2019-02-23T12:55:47.978Z,2311.88
2019-02-23T12:56:48.673Z,2126.25
2019-02-23T12:57:49.812Z,2064.38
2019-02-23T12:58:50.934Z,2025
2019-02-23T12:59:52.353Z,2019.38
2019-02-23T13:00:53.494Z,2131.88
2019-02-23T13:01:53.640Z,2340
2019-02-23T13:02:55.119Z,2199.38
2019-02-23T13:03:55.536Z,2086.88
2019-02-23T13:04:56.239Z,2064.38
2019-02-23T13:05:56.656Z,1935
2019-02-23T13:06:57.629Z,1586.25
2019-02-23T13:07:57.776Z,2036.25
2019-02-23T13:08:58.882Z,2188.13
2019-02-23T13:09:59.307Z,1895.63
2019-02-23T13:11:00.012Z,1755
2019-02-23T13:12:00.440Z,1833.75
2019-02-23T13:13:01.146Z,2081.25
2019-02-23T13:14:01.289Z,1901.25
2019-02-23T13:15:02.723Z,1856.25
2019-02-23T13:16:03.147Z,1963.13
2019-02-23T13:17:03.844Z,2103.75
2019-02-23T13:18:06.101Z,2092.5
2019-02-23T13:19:05.661Z,2143.13
2019-02-23T13:20:05.803Z,2103.75
2019-02-23T13:21:07.228Z,2064.38
2019-02-23T13:22:07.648Z,2013.75
2019-02-23T13:23:09.066Z,1963.13
2019-02-23T13:24:09.491Z,1980
2019-02-23T13:25:10.491Z,2025
2019-02-23T13:26:11.477Z,1906.88
2019-02-23T13:27:12.181Z,1912.5
2019-02-23T13:28:13.197Z,2047.5
2019-02-23T13:29:13.600Z,2120.63
2019-02-23T13:30:14.577Z,1951.88
2019-02-23T13:31:17.871Z,1704.38
2019-02-23T13:32:17.898Z,1726.88
2019-02-23T13:33:18.329Z,1890
2019-02-23T13:34:19.312Z,1906.88
2019-02-23T13:35:19.744Z,1974.38
2019-02-23T13:36:22.276Z,1800
2019-02-23T13:37:22.261Z,1586.25
2019-02-23T13:38:22.404Z,1586.25
2019-02-23T13:39:23.511Z,1681.88
2019-02-23T13:40:24.276Z,1805.63
2019-02-23T13:41:24.696Z,1794.38
2019-02-23T13:42:25.950Z,1816.88
2019-02-23T13:43:26.926Z,1839.38
2019-02-23T13:44:27.352Z,1788.75